Time;durP1;ratioP1;P1;durP2;ratioP2;P2;SDS_P1;SDS_P2;PMS_P1;PMS_P2;Temp;Humidity;BMP_temperature;BMP_pressure;BME280_temperature;BME280_humidity;BME280_pressure;Samples;Min_cycle;Max_cycle;Signal;HPM_P1;HPM_P2
2022/09/23 00:00:36;;;;;;;42.42;39.22;;;8.20;99.90;;;;;;4924320;29;20039;-74
2022/09/23 00:03:03;;;;;;;42.45;39.15;;;8.20;99.90;;;;;;4940070;29;20576;-74
2022/09/23 00:05:29;;;;;;;42.08;38.55;;;8.10;99.90;;;;;;4940039;29;20047;-74
2022/09/23 00:07:56;;;;;;;42.78;39.42;;;8.10;99.90;;;;;;4924097;29;20126;-74
2022/09/23 00:10:27;;;;;;;40.58;37.55;;;8.10;99.90;;;;;;4939812;29;20537;-75
2022/09/23 00:12:53;;;;;;;45.67;42.08;;;8.10;99.90;;;;;;4940032;29;20098;-75
2022/09/23 00:15:20;;;;;;;44.58;41.10;;;8.10;99.90;;;;;;4940328;29;20040;-74
2022/09/23 00:17:46;;;;;;;39.53;36.45;;;8.10;99.90;;;;;;4939709;29;20118;-74
2022/09/23 00:20:12;;;;;;;43.67;40.22;;;8.10;99.90;;;;;;4939676;29;20528;-74
2022/09/23 00:22:38;;;;;;;41.72;38.53;;;8.10;99.90;;;;;;4923838;29;20043;-74
2022/09/23 00:25:06;;;;;;;43.15;39.67;;;8.10;99.90;;;;;;4939791;29;20039;-74
2022/09/23 00:27:32;;;;;;;42.47;39.13;;;8.10;99.90;;;;;;4923640;29;20051;-74
2022/09/23 00:29:58;;;;;;;43.67;40.20;;;8.10;99.90;;;;;;4939544;29;20130;-74
2022/09/23 00:32:24;;;;;;;46.53;43.00;;;8.10;99.90;;;;;;4939580;29;20094;-74
2022/09/23 00:34:51;;;;;;;45.75;42.10;;;8.10;99.90;;;;;;4939576;29;20039;-74
2022/09/23 00:37:17;;;;;;;40.22;37.13;;;8.00;99.90;;;;;;4939388;29;20047;-74
2022/09/23 00:39:44;;;;;;;38.65;35.72;;;8.00;99.90;;;;;;4923333;29;20498;-74
2022/09/23 00:42:19;;;;;;;48.20;44.40;;;8.00;99.90;;;;;;4939648;29;20051;-74
2022/09/23 00:44:49;;;;;;;41.85;38.72;;;8.00;99.90;;;;;;4923540;29;20039;-75
2022/09/23 00:47:30;;;;;;;44.55;41.05;;;8.00;99.90;;;;;;4939111;29;20109;-74
2022/09/23 00:50:08;;;;;;;50.53;46.53;;;8.00;99.90;;;;;;4939282;29;20074;-74
2022/09/23 00:52:36;;;;;;;49.35;45.53;;;8.00;99.90;;;;;;4939309;29;20035;-74
2022/09/23 00:55:07;;;;;;;43.65;40.30;;;8.00;99.90;;;;;;4923358;29;20039;-74
2022/09/23 00:57:35;;;;;;;46.47;42.75;;;8.00;99.90;;;;;;4923062;29;20500;-74
2022/09/23 01:00:03;;;;;;;43.05;39.83;;;8.00;99.90;;;;;;4923239;29;20116;-74
2022/09/23 01:02:30;;;;;;;45.20;41.60;;;8.00;99.90;;;;;;4923419;29;20402;-75
2022/09/23 01:04:56;;;;;;;45.83;42.30;;;8.00;99.90;;;;;;4923351;29;20046;-74
2022/09/23 01:07:22;;;;;;;43.05;39.65;;;8.00;99.90;;;;;;4923261;29;20086;-75
2022/09/23 01:09:48;;;;;;;43.95;40.45;;;8.00;99.90;;;;;;4938675;29;20079;-74
2022/09/23 01:12:28;;;;;;;44.03;40.72;;;8.00;99.90;;;;;;4938969;29;20039;-74
2022/09/23 01:15:12;;;;;;;46.22;42.45;;;8.00;99.90;;;;;;4938926;29;20040;-74
2022/09/23 01:17:43;;;;;;;46.13;42.45;;;8.00;99.90;;;;;;4938509;29;20039;-75
2022/09/23 01:20:32;;;;;;;49.55;45.65;;;8.00;99.90;;;;;;4922811;29;20130;-74
2022/09/23 01:23:36;;;;;;;43.90;40.58;;;8.00;99.90;;;;;;4893836;29;20530;-74
2022/09/23 01:26:14;;;;;;;45.22;41.60;;;8.00;99.90;;;;;;4924085;29;20055;-74
2022/09/23 01:29:01;;;;;;;46.40;42.78;;;8.00;99.90;;;;;;4938292;29;20158;-74
2022/09/23 01:31:51;;;;;;;46.15;42.65;;;8.00;99.90;;;;;;4938861;29;20070;-74
2022/09/23 01:34:20;;;;;;;43.17;39.67;;;8.00;99.90;;;;;;4938710;29;20031;-74
2022/09/23 01:37:01;;;;;;;48.67;44.97;;;8.00;99.90;;;;;;4938388;29;20063;-74
2022/09/23 01:39:32;;;;;;;51.15;47.03;;;8.00;99.90;;;;;;4938249;29;20619;-74
2022/09/23 01:42:16;;;;;;;44.58;41.25;;;7.90;99.90;;;;;;4938427;29;20043;-74
2022/09/23 01:44:47;;;;;;;45.85;42.35;;;7.90;99.90;;;;;;4938322;29;20130;-74
2022/09/23 01:47:34;;;;;;;44.35;40.95;;;7.90;99.90;;;;;;4938280;29;20143;-74
2022/09/23 01:53:01;;;;;;;43.17;39.95;;;7.90;99.90;;;;;;4938216;29;20054;-74
2022/09/23 01:55:36;;;;;;;42.80;39.40;;;7.90;99.90;;;;;;4938144;29;20043;-74
2022/09/23 01:58:26;;;;;;;41.88;38.78;;;7.90;99.90;;;;;;4937937;29;20031;-74
2022/09/23 02:01:05;;;;;;;41.13;38.05;;;7.90;99.90;;;;;;4937991;29;20110;-74
2022/09/23 02:03:49;;;;;;;47.88;44.00;;;7.90;99.90;;;;;;4922109;29;20094;-74
2022/09/23 02:06:24;;;;;;;42.42;39.33;;;7.90;99.90;;;;;;4937951;29;20039;-74
2022/09/23 02:09:00;;;;;;;41.42;38.28;;;7.90;99.90;;;;;;4937611;29;20047;-75
2022/09/23 02:11:27;;;;;;;46.33;42.92;;;7.90;99.90;;;;;;4937774;29;20031;-74
2022/09/23 02:14:09;;;;;;;42.75;39.60;;;7.90;99.90;;;;;;4922145;29;20047;-74
2022/09/23 02:16:43;;;;;;;43.05;39.78;;;7.80;99.90;;;;;;4937101;29;20075;-74
2022/09/23 02:19:14;;;;;;;42.58;39.35;;;7.90;99.90;;;;;;4921949;28;20051;-74
2022/09/23 02:21:46;;;;;;;41.67;38.45;;;7.80;99.90;;;;;;4937678;29;20043;-74
2022/09/23 02:24:21;;;;;;;49.47;45.72;;;7.80;99.90;;;;;;4937872;29;20138;-74
2022/09/23 02:27:11;;;;;;;49.83;45.95;;;7.80;99.90;;;;;;4921905;29;20380;-75
2022/09/23 02:30:02;;;;;;;45.25;42.00;;;7.80;99.90;;;;;;4921514;29;20054;-74
2022/09/23 02:32:37;;;;;;;43.28;40.08;;;7.80;99.90;;;;;;4937567;29;20043;-74
2022/09/23 02:35:31;;;;;;;51.38;47.33;;;7.80;99.90;;;;;;4937439;29;20039;-74
2022/09/23 02:38:25;;;;;;;46.80;43.20;;;7.70;99.90;;;;;;4921580;29;20050;-74
2022/09/23 02:41:05;;;;;;;43.00;39.85;;;7.70;99.90;;;;;;4937370;29;20438;-75
2022/09/23 02:43:38;;;;;;;47.00;43.50;;;7.70;99.90;;;;;;4937478;29;20356;-74
2022/09/23 02:46:05;;;;;;;47.42;43.83;;;7.60;99.90;;;;;;4937225;29;20582;-74
2022/09/23 02:48:36;;;;;;;50.67;46.80;;;7.60;99.90;;;;;;4936979;29;20093;-74
2022/09/23 02:51:03;;;;;;;46.83;43.40;;;7.60;99.90;;;;;;4937092;29;20047;-74
2022/09/23 02:53:33;;;;;;;46.45;42.95;;;7.60;99.90;;;;;;4937329;29;20114;-74
2022/09/23 02:56:00;;;;;;;45.70;42.42;;;7.60;99.90;;;;;;4921144;29;20057;-75
2022/09/23 02:58:26;;;;;;;51.90;48.08;;;7.50;99.90;;;;;;4921051;29;20047;-75
2022/09/23 03:01:04;;;;;;;46.00;42.42;;;7.50;99.90;;;;;;4936781;29;20039;-75
2022/09/23 03:03:33;;;;;;;52.55;48.53;;;7.50;99.90;;;;;;4921309;29;20424;-75
2022/09/23 03:06:07;;;;;;;45.30;41.83;;;7.50;99.90;;;;;;4920967;29;20043;-76
2022/09/23 03:08:47;;;;;;;50.15;46.47;;;7.50;99.90;;;;;;4920749;29;20130;-75
2022/09/23 03:11:14;;;;;;;50.00;46.35;;;7.50;99.90;;;;;;4936935;29;20039;-75
2022/09/23 03:13:46;;;;;;;45.97;42.63;;;7.50;99.90;;;;;;4936810;29;20113;-75
2022/09/23 03:16:41;;;;;;;48.70;45.03;;;7.50;99.90;;;;;;4937030;29;20047;-75
2022/09/23 03:19:06;;;;;;;47.33;43.72;;;7.50;99.90;;;;;;4920624;28;20122;-75
2022/09/23 03:22:01;;;;;;;49.60;46.00;;;7.50;99.90;;;;;;4936662;29;20133;-75
2022/09/23 03:24:30;;;;;;;50.00;46.17;;;7.50;99.90;;;;;;4936910;29;20454;-75
2022/09/23 03:27:00;;;;;;;48.08;44.30;;;7.50;99.90;;;;;;4936133;28;20051;-75
2022/09/23 03:29:27;;;;;;;45.67;42.25;;;7.50;99.90;;;;;;4919923;29;20159;-75
2022/09/23 03:31:54;;;;;;;46.92;43.35;;;7.40;99.90;;;;;;4936728;29;20494;-75
2022/09/23 03:34:28;;;;;;;45.17;41.67;;;7.40;99.90;;;;;;4936497;29;20126;-75
2022/09/23 03:36:59;;;;;;;43.17;39.97;;;7.40;99.90;;;;;;4920514;29;20082;-76
2022/09/23 03:42:15;;;;;;;42.70;39.60;;;7.50;99.90;;;;;;4933025;29;20044;-75
2022/09/23 03:44:55;;;;;;;41.58;38.47;;;7.50;99.90;;;;;;4917613;29;20501;-78
2022/09/23 03:47:25;;;;;;;44.40;41.03;;;7.40;99.90;;;;;;4917585;29;20566;-78
2022/09/23 03:49:52;;;;;;;43.45;40.25;;;7.40;99.90;;;;;;4917617;29;20103;-78
2022/09/23 03:52:21;;;;;;;41.80;38.75;;;7.40;99.90;;;;;;4917885;29;20532;-77
2022/09/23 03:54:48;;;;;;;45.28;41.83;;;7.40;99.90;;;;;;4933949;29;20620;-77
2022/09/23 03:57:14;;;;;;;42.22;39.10;;;7.40;99.90;;;;;;4917430;29;20047;-77
2022/09/23 03:59:42;;;;;;;44.40;41.10;;;7.40;99.90;;;;;;4917242;29;20464;-78
2022/09/23 04:02:15;;;;;;;41.15;38.20;;;7.40;99.90;;;;;;4917548;29;20048;-78
2022/09/23 04:04:41;;;;;;;40.95;37.88;;;7.40;99.90;;;;;;4917678;29;20040;-78
2022/09/23 04:07:13;;;;;;;41.47;38.28;;;7.40;99.90;;;;;;4917310;29;20042;-78
2022/09/23 04:09:41;;;;;;;41.63;38.58;;;7.40;99.90;;;;;;4920283;29;20075;-77
2022/09/23 04:12:13;;;;;;;46.75;43.15;;;7.40;99.90;;;;;;4934161;29;20075;-77
2022/09/23 04:14:40;;;;;;;40.97;37.92;;;7.40;99.90;;;;;;4918214;29;20039;-78
2022/09/23 04:17:05;;;;;;;44.25;40.95;;;7.30;99.90;;;;;;4918053;29;20466;-77
2022/09/23 04:19:47;;;;;;;42.10;39.10;;;7.30;99.90;;;;;;4917820;29;20043;-77
2022/09/23 04:22:12;;;;;;;41.88;38.58;;;7.30;99.90;;;;;;4918222;29;20082;-77
2022/09/23 04:24:38;;;;;;;42.70;39.60;;;7.30;99.90;;;;;;4918145;29;20162;-77
2022/09/23 04:27:07;;;;;;;45.22;41.88;;;7.30;99.90;;;;;;4917445;29;20479;-77
2022/09/23 04:29:35;;;;;;;42.80;39.17;;;7.30;99.90;;;;;;4917547;29;20506;-77
2022/09/23 04:32:04;;;;;;;42.63;39.40;;;7.30;99.90;;;;;;4933018;29;20079;-78
2022/09/23 04:34:30;;;;;;;43.88;40.67;;;7.30;99.90;;;;;;4918029;29;20075;-78
2022/09/23 04:36:56;;;;;;;43.20;39.83;;;7.30;99.90;;;;;;4917912;29;20086;-77
2022/09/23 04:39:21;;;;;;;38.67;35.80;;;7.30;99.90;;;;;;4918990;29;20483;-78
2022/09/23 04:41:50;;;;;;;40.22;37.33;;;7.40;99.90;;;;;;4921191;29;20513;-77
2022/09/23 04:44:16;;;;;;;43.03;39.72;;;7.40;99.90;;;;;;4921780;29;20044;-78
2022/09/23 04:46:46;;;;;;;39.20;36.25;;;7.40;99.90;;;;;;4937240;29;20043;-77
2022/09/23 04:49:17;;;;;;;41.22;38.22;;;7.30;99.90;;;;;;4920819;29;20514;-78
2022/09/23 04:51:44;;;;;;;48.65;44.83;;;7.30;99.90;;;;;;4921134;29;20048;-78
2022/09/23 04:54:16;;;;;;;42.40;39.20;;;7.30;99.90;;;;;;4921589;29;20043;-78
2022/09/23 04:56:44;;;;;;;39.97;36.95;;;7.30;99.90;;;;;;4920754;29;20043;-78
2022/09/23 04:59:11;;;;;;;42.83;39.60;;;7.30;99.90;;;;;;4920410;29;20351;-78
2022/09/23 05:01:37;;;;;;;44.47;41.10;;;7.30;99.90;;;;;;4920633;29;20047;-77
2022/09/23 05:04:08;;;;;;;46.05;42.55;;;7.20;99.90;;;;;;4936400;29;20054;-77
2022/09/23 05:06:35;;;;;;;45.95;42.55;;;7.20;99.90;;;;;;4920493;29;20051;-78
2022/09/23 05:09:05;;;;;;;42.83;39.65;;;7.20;99.90;;;;;;4920457;29;20047;-78
2022/09/23 05:11:33;;;;;;;43.78;40.42;;;7.10;99.90;;;;;;4920294;29;20046;-78
2022/09/23 05:13:59;;;;;;;44.83;41.42;;;7.10;99.90;;;;;;4920724;29;20053;-78
2022/09/23 05:16:28;;;;;;;41.00;37.70;;;7.20;99.90;;;;;;4920859;29;20491;-78
2022/09/23 05:18:54;;;;;;;42.13;38.97;;;7.20;99.90;;;;;;4920566;29;20254;-78
2022/09/23 05:21:22;;;;;;;45.08;41.53;;;7.10;99.90;;;;;;4920568;29;20044;-78
2022/09/23 05:23:55;;;;;;;44.05;40.65;;;7.10;99.90;;;;;;4920399;29;20047;-78
2022/09/23 05:26:26;;;;;;;48.28;44.65;;;7.10;99.90;;;;;;4920768;29;20047;-78
2022/09/23 05:28:53;;;;;;;45.72;42.10;;;7.10;99.90;;;;;;4920018;29;20047;-78
2022/09/23 05:31:21;;;;;;;46.92;43.28;;;7.10;99.90;;;;;;4920227;29;20047;-78
2022/09/23 05:33:52;;;;;;;46.30;42.80;;;7.10;99.90;;;;;;4919910;29;20450;-78
2022/09/23 05:36:22;;;;;;;42.47;39.28;;;7.10;99.90;;;;;;4935832;29;20516;-78
2022/09/23 05:38:49;;;;;;;40.75;37.70;;;7.20;99.90;;;;;;4935866;29;20043;-78
2022/09/23 05:41:16;;;;;;;45.92;42.53;;;7.10;99.90;;;;;;4935523;29;20372;-78
2022/09/23 05:43:42;;;;;;;43.70;40.30;;;7.10;99.90;;;;;;4919935;29;20074;-77
2022/09/23 05:46:13;;;;;;;47.50;43.83;;;7.10;99.90;;;;;;4935496;29;20099;-78
2022/09/23 05:48:44;;;;;;;41.55;38.45;;;7.10;99.90;;;;;;4919677;29;20043;-78
2022/09/23 05:51:14;;;;;;;47.85;43.95;;;7.20;99.90;;;;;;4918642;29;20130;-77
2022/09/23 05:53:41;;;;;;;41.38;38.08;;;7.20;99.90;;;;;;4919628;29;20509;-77
2022/09/23 05:56:09;;;;;;;42.22;39.15;;;7.30;99.90;;;;;;4919595;29;20525;-78
2022/09/23 05:58:38;;;;;;;46.17;42.45;;;7.30;99.90;;;;;;4919450;29;20071;-78
2022/09/23 06:01:20;;;;;;;40.13;37.03;;;7.30;99.90;;;;;;4919578;29;20054;-77
2022/09/23 06:03:48;;;;;;;47.13;43.63;;;7.40;99.90;;;;;;4919664;29;20054;-77
2022/09/23 06:06:19;;;;;;;42.80;39.53;;;7.50;99.90;;;;;;4935429;29;20056;-78
2022/09/23 06:08:45;;;;;;;45.00;41.60;;;7.60;99.90;;;;;;4919167;29;20438;-77
2022/09/23 06:11:12;;;;;;;47.03;43.40;;;7.70;99.90;;;;;;4918974;29;20324;-77
2022/09/23 06:13:39;;;;;;;41.38;38.17;;;7.80;99.90;;;;;;4918939;29;20039;-77
2022/09/23 06:16:07;;;;;;;42.60;39.28;;;7.90;99.90;;;;;;4936063;29;20494;-77
2022/09/23 06:18:37;;;;;;;44.00;40.63;;;7.90;99.90;;;;;;4918905;29;20126;-77
2022/09/23 06:21:03;;;;;;;44.58;41.08;;;8.00;99.90;;;;;;4919325;29;20376;-77
2022/09/23 06:23:29;;;;;;;34.58;31.85;;;8.10;99.90;;;;;;4919263;29;20051;-78
2022/09/23 06:26:06;;;;;;;35.35;32.55;;;8.10;99.90;;;;;;4919263;29;20398;-78
2022/09/23 06:28:36;;;;;;;37.40;34.60;;;8.20;99.90;;;;;;4918568;29;20055;-77
2022/09/23 06:31:07;;;;;;;32.03;29.63;;;8.20;99.90;;;;;;4902848;29;20183;-77
2022/09/23 06:33:34;;;;;;;31.15;28.65;;;8.30;99.90;;;;;;4919029;29;20048;-78
2022/09/23 06:36:02;;;;;;;32.58;30.10;;;8.30;99.90;;;;;;4918798;29;20044;-78
2022/09/23 06:38:33;;;;;;;35.35;32.65;;;8.30;99.90;;;;;;4918596;29;20066;-78
2022/09/23 06:41:02;;;;;;;38.47;35.53;;;8.40;99.90;;;;;;4918504;29;20482;-77
2022/09/23 06:43:28;;;;;;;33.63;30.92;;;8.50;99.90;;;;;;4919048;29;20047;-77
2022/09/23 06:46:02;;;;;;;34.50;31.77;;;8.50;99.90;;;;;;4918952;29;20091;-77
2022/09/23 06:48:29;;;;;;;36.70;33.90;;;8.50;99.90;;;;;;4933952;29;20048;-77
2022/09/23 06:51:01;;;;;;;37.85;34.88;;;8.60;99.90;;;;;;4934396;29;20055;-77
2022/09/23 06:53:33;;;;;;;31.08;28.67;;;8.60;99.90;;;;;;4919178;29;20044;-78
2022/09/23 06:55:59;;;;;;;34.75;31.85;;;8.70;99.90;;;;;;4918673;29;20039;-78
2022/09/23 06:58:25;;;;;;;32.42;29.98;;;8.80;99.90;;;;;;4918270;29;20042;-78
2022/09/23 07:00:52;;;;;;;34.50;31.98;;;8.80;99.90;;;;;;4918509;29;20131;-78
2022/09/23 07:03:18;;;;;;;29.77;27.58;;;9.00;99.90;;;;;;4920677;29;20048;-78
2022/09/23 07:05:44;;;;;;;32.05;29.38;;;8.90;99.90;;;;;;4921097;29;20539;-78
2022/09/23 07:08:13;;;;;;;32.83;30.23;;;9.00;99.90;;;;;;4919365;29;20092;-78
2022/09/23 07:10:39;;;;;;;31.25;28.65;;;9.00;99.90;;;;;;4934411;29;20051;-78
2022/09/23 07:13:05;;;;;;;30.42;27.83;;;9.10;99.90;;;;;;4919379;29;20043;-78
2022/09/23 07:15:34;;;;;;;28.83;26.55;;;9.20;99.90;;;;;;4918942;29;20228;-77
2022/09/23 07:17:59;;;;;;;29.58;27.17;;;9.30;99.90;;;;;;4918740;29;20046;-77
2022/09/23 07:20:28;;;;;;;28.25;26.00;;;9.40;99.90;;;;;;4918884;29;20055;-77
2022/09/23 07:22:54;;;;;;;28.00;25.80;;;9.40;99.90;;;;;;4918813;29;20046;-78
2022/09/23 07:25:21;;;;;;;26.23;24.02;;;9.50;99.90;;;;;;4919041;29;20083;-78
2022/09/23 07:27:47;;;;;;;28.42;26.15;;;9.60;99.90;;;;;;4934685;29;20567;-78
2022/09/23 07:30:14;;;;;;;27.55;25.45;;;9.70;99.90;;;;;;4919462;29;20087;-78
2022/09/23 07:32:40;;;;;;;25.88;23.88;;;9.80;99.90;;;;;;4919368;29;20131;-78
2022/09/23 07:35:13;;;;;;;23.45;21.52;;;9.80;99.90;;;;;;4919317;29;20048;-78
2022/09/23 07:37:39;;;;;;;25.35;23.35;;;9.90;99.90;;;;;;4919246;29;20035;-78
2022/09/23 07:40:05;;;;;;;24.88;22.90;;;10.00;99.90;;;;;;4918870;29;20095;-78
2022/09/23 07:42:31;;;;;;;23.30;21.40;;;10.00;99.90;;;;;;4918886;29;20458;-78
2022/09/23 07:44:57;;;;;;;23.67;21.95;;;10.10;99.90;;;;;;4918820;29;20039;-78
2022/09/23 07:47:25;;;;;;;23.27;21.20;;;10.20;99.90;;;;;;4918490;29;20075;-78
2022/09/23 07:49:54;;;;;;;25.42;23.33;;;10.20;99.90;;;;;;4934050;29;20091;-78
2022/09/23 07:52:20;;;;;;;22.80;21.02;;;10.40;99.90;;;;;;4918825;29;20051;-78
2022/09/23 07:54:47;;;;;;;23.23;21.33;;;10.40;99.90;;;;;;4918624;29;20043;-78
2022/09/23 07:57:12;;;;;;;24.40;22.38;;;10.50;99.90;;;;;;4918540;29;20044;-78
2022/09/23 07:59:39;;;;;;;26.02;23.83;;;10.60;99.90;;;;;;4918609;29;20462;-78
2022/09/23 08:02:05;;;;;;;22.35;20.65;;;10.80;99.90;;;;;;4918748;29;20046;-78
2022/09/23 08:04:33;;;;;;;22.40;20.65;;;10.80;99.90;;;;;;4918570;29;20058;-78
2022/09/23 08:07:04;;;;;;;22.50;20.70;;;10.90;99.90;;;;;;4918704;29;20047;-78
2022/09/23 08:09:40;;;;;;;22.20;20.50;;;11.00;99.90;;;;;;4918344;29;20074;-78
2022/09/23 08:12:18;;;;;;;21.27;19.58;;;11.00;99.90;;;;;;4934522;29;20424;-78
2022/09/23 08:14:44;;;;;;;22.27;20.45;;;11.20;99.90;;;;;;4920195;29;20036;-78
2022/09/23 08:17:19;;;;;;;22.75;20.70;;;11.20;99.90;;;;;;4922295;29;20055;-78
2022/09/23 08:19:47;;;;;;;21.30;19.50;;;11.40;99.90;;;;;;4921704;29;20133;-78
2022/09/23 08:22:15;;;;;;;22.88;20.98;;;11.40;99.90;;;;;;4922204;29;20134;-78
2022/09/23 08:24:41;;;;;;;20.90;19.17;;;11.50;99.90;;;;;;4937457;29;20130;-77
2022/09/23 08:27:09;;;;;;;19.73;18.23;;;11.60;99.90;;;;;;4921698;29;20138;-79
2022/09/23 08:29:38;;;;;;;20.52;18.83;;;11.70;99.90;;;;;;4921841;29;20054;-78
2022/09/23 08:32:06;;;;;;;18.75;17.25;;;11.80;99.90;;;;;;4922167;29;20091;-77
2022/09/23 08:34:32;;;;;;;20.52;18.77;;;11.80;99.90;;;;;;4921322;29;20486;-78
2022/09/23 08:36:58;;;;;;;20.27;18.55;;;11.90;99.90;;;;;;4936872;29;20103;-78
2022/09/23 08:39:30;;;;;;;20.45;18.77;;;12.00;99.90;;;;;;4937455;29;20047;-78
2022/09/23 08:42:07;;;;;;;19.98;18.27;;;12.20;99.90;;;;;;4921549;29;20277;-78
2022/09/23 08:45:04;;;;;;;18.50;17.00;;;12.20;99.90;;;;;;4921664;29;20048;-78
2022/09/23 08:47:59;;;;;;;18.95;17.45;;;12.40;99.90;;;;;;4937186;29;20056;-78
2022/09/23 08:50:57;;;;;;;19.85;18.20;;;12.60;99.90;;;;;;4921070;29;20109;-78
2022/09/23 08:53:31;;;;;;;19.00;17.35;;;12.70;99.90;;;;;;4935337;29;20091;-78
2022/09/23 08:55:59;;;;;;;19.85;18.00;;;12.80;99.90;;;;;;4921382;29;20035;-78
2022/09/23 08:58:33;;;;;;;17.13;15.63;;;13.00;99.90;;;;;;4920562;29;20546;-78
2022/09/23 09:01:35;;;;;;;17.83;16.42;;;13.10;99.90;;;;;;4921159;29;20079;-78
2022/09/23 09:04:22;;;;;;;17.58;16.08;;;13.20;99.90;;;;;;4921816;29;20130;-78
2022/09/23 09:07:12;;;;;;;16.40;15.00;;;13.40;99.90;;;;;;4921028;29;20079;-78
2022/09/23 09:10:01;;;;;;;16.45;14.80;;;13.60;99.90;;;;;;4921091;29;20052;-78
2022/09/23 09:12:44;;;;;;;16.65;15.25;;;13.90;99.90;;;;;;4920965;29;20051;-78
2022/09/23 09:15:19;;;;;;;15.23;13.93;;;14.10;99.90;;;;;;4920932;29;20048;-79
2022/09/23 09:18:09;;;;;;;13.68;12.32;;;14.30;99.90;;;;;;4920952;29;20043;-79
2022/09/23 09:20:56;;;;;;;14.13;12.90;;;14.60;99.90;;;;;;4936969;29;20058;-78
2022/09/23 09:23:23;;;;;;;13.73;12.32;;;14.80;99.90;;;;;;4936688;29;20039;-78
2022/09/23 09:25:58;;;;;;;14.32;12.93;;;15.00;99.90;;;;;;4920362;29;20047;-78
2022/09/23 09:28:29;;;;;;;13.82;12.57;;;15.20;99.90;;;;;;4920730;29;20043;-78
2022/09/23 09:30:59;;;;;;;12.70;11.50;;;15.30;99.90;;;;;;4920626;29;20063;-78
2022/09/23 09:33:45;;;;;;;16.70;13.82;;;15.30;99.90;;;;;;4920442;29;20524;-78
2022/09/23 09:36:30;;;;;;;13.95;12.68;;;15.30;99.90;;;;;;4921493;29;20052;-78
2022/09/23 09:38:58;;;;;;;14.52;13.23;;;15.30;99.90;;;;;;4936665;29;20071;-78
2022/09/23 09:41:27;;;;;;;13.68;12.43;;;15.30;99.90;;;;;;4937397;23;20058;-75
2022/09/23 09:43:56;;;;;;;14.43;13.13;;;15.30;99.90;;;;;;4938567;29;20046;-76
2022/09/23 09:46:43;;;;;;;14.85;13.65;;;15.30;99.90;;;;;;4938259;29;20043;-76
2022/09/23 09:49:32;;;;;;;13.98;12.57;;;15.30;99.90;;;;;;4938396;29;20049;-76
2022/09/23 09:52:11;;;;;;;13.77;12.60;;;15.20;99.90;;;;;;4938551;29;20432;-76
2022/09/23 09:54:38;;;;;;;13.32;12.13;;;15.30;99.90;;;;;;4938258;29;20039;-76
2022/09/23 09:57:13;;;;;;;14.35;13.02;;;15.20;99.90;;;;;;4937958;29;20047;-76
2022/09/23 09:59:41;;;;;;;14.02;12.77;;;15.20;99.90;;;;;;4938151;28;20051;-76
2022/09/23 10:02:30;;;;;;;14.15;12.73;;;15.30;99.90;;;;;;4938367;29;20097;-76
2022/09/23 10:05:01;;;;;;;14.02;12.73;;;15.30;99.90;;;;;;4938065;29;20054;-76
2022/09/23 10:07:31;;;;;;;12.93;11.93;;;15.30;99.90;;;;;;4937736;29;20046;-76
2022/09/23 10:10:00;;;;;;;14.27;12.98;;;15.40;99.90;;;;;;4937912;28;20523;-75
2022/09/23 10:12:25;;;;;;;13.48;12.18;;;15.40;99.90;;;;;;4922044;29;20039;-75
2022/09/23 10:14:55;;;;;;;13.35;11.82;;;15.40;99.90;;;;;;4937915;29;20040;-75
2022/09/23 10:17:32;;;;;;;15.93;13.07;;;15.40;99.90;;;;;;4922139;29;20086;-75
2022/09/23 10:20:01;;;;;;;12.68;11.52;;;15.50;99.90;;;;;;4937740;28;20588;-76
2022/09/23 10:22:32;;;;;;;14.27;12.98;;;15.40;99.90;;;;;;4937934;29;20505;-76
2022/09/23 10:25:02;;;;;;;13.68;12.32;;;15.50;99.90;;;;;;4937704;29;20043;-75
2022/09/23 10:27:34;;;;;;;11.77;10.55;;;15.50;99.90;;;;;;4937670;29;20413;-76
2022/09/23 10:30:06;;;;;;;13.15;12.00;;;15.70;99.90;;;;;;4938917;28;20082;-76
2022/09/23 10:32:39;;;;;;;13.48;12.30;;;15.80;99.90;;;;;;4938693;28;20059;-75
2022/09/23 10:35:08;;;;;;;13.65;12.45;;;15.90;99.90;;;;;;4936261;29;20051;-75
2022/09/23 10:37:38;;;;;;;13.15;11.82;;;16.00;99.90;;;;;;4920931;28;20114;-75
2022/09/23 10:46:44;;;;;;;12.05;10.95;;;16.10;99.90;;;;;;4946345;28;20053;-76
2022/09/23 10:49:39;;;;;;;12.05;11.05;;;16.10;99.90;;;;;;4933119;28;20085;-76
2022/09/23 10:52:21;;;;;;;12.70;11.45;;;16.20;99.90;;;;;;4945590;28;20046;-76
2022/09/23 10:55:04;;;;;;;11.10;10.00;;;16.20;99.90;;;;;;4945454;28;20110;-75
2022/09/23 10:57:45;;;;;;;11.88;10.77;;;16.30;99.90;;;;;;4932033;29;20043;-75
2022/09/23 11:00:46;;;;;;;12.00;10.57;;;16.30;99.90;;;;;;4949212;28;20404;-75
2022/09/23 11:03:57;;;;;;;12.38;11.18;;;16.30;99.90;;;;;;4917780;29;20516;-76
2022/09/23 11:06:43;;;;;;;12.25;11.15;;;16.30;99.90;;;;;;4863051;29;20053;-77
2022/09/23 11:09:17;;;;;;;12.13;10.90;;;16.40;99.90;;;;;;4862534;29;20044;-77
2022/09/23 11:11:49;;;;;;;11.05;10.15;;;16.40;99.90;;;;;;4896539;28;20078;-77
2022/09/23 11:14:16;;;;;;;11.23;10.15;;;16.40;99.90;;;;;;4950548;28;20043;-77
2022/09/23 11:17:13;;;;;;;11.00;10.00;;;16.30;99.90;;;;;;4931569;28;20043;-77
2022/09/23 11:20:16;;;;;;;10.88;9.98;;;16.40;99.90;;;;;;4956889;28;20050;-79
2022/09/23 11:23:17;;;;;;;11.07;10.00;;;16.30;99.90;;;;;;4941684;28;20078;-77
2022/09/23 11:25:59;;;;;;;11.10;10.10;;;16.40;99.90;;;;;;4949147;28;20147;-79
2022/09/23 11:28:49;;;;;;;12.48;11.25;;;16.30;99.90;;;;;;4947909;29;20047;-76
2022/09/23 11:31:58;;;;;;;11.25;10.07;;;16.30;99.90;;;;;;4946928;28;20051;-76
2022/09/23 11:34:41;;;;;;;11.23;10.05;;;16.30;99.90;;;;;;4868769;29;20045;-77
2022/09/23 11:37:13;;;;;;;11.13;10.07;;;16.30;99.90;;;;;;4899173;29;20518;-77
2022/09/23 11:39:46;;;;;;;12.10;10.90;;;16.30;99.90;;;;;;4918382;28;20062;-77
2022/09/23 11:42:29;;;;;;;12.40;11.23;;;16.30;99.90;;;;;;4949632;28;20051;-78
2022/09/23 11:45:22;;;;;;;11.93;10.75;;;16.20;99.90;;;;;;4956036;28;20042;-77
2022/09/23 11:48:00;;;;;;;14.38;10.98;;;16.20;99.90;;;;;;4929041;28;20121;-80
2022/09/23 11:50:37;;;;;;;11.13;10.02;;;16.20;99.90;;;;;;4940448;28;20051;-77
2022/09/23 11:53:41;;;;;;;11.80;10.30;;;16.10;99.90;;;;;;4946988;29;20035;-77
2022/09/23 11:56:26;;;;;;;11.52;10.38;;;16.10;99.90;;;;;;4947828;28;20401;-77
2022/09/23 11:59:12;;;;;;;11.00;9.90;;;16.10;99.90;;;;;;4928430;28;20042;-76
2022/09/23 12:01:46;;;;;;;12.05;10.95;;;16.10;99.90;;;;;;4931680;28;20039;-76
2022/09/23 12:04:39;;;;;;;11.73;10.65;;;16.00;99.90;;;;;;4940843;29;20043;-79
2022/09/23 12:07:07;;;;;;;11.63;10.60;;;16.00;99.90;;;;;;4949068;28;20043;-77
2022/09/23 12:10:03;;;;;;;11.05;9.90;;;16.00;99.90;;;;;;4956367;28;20050;-77
2022/09/23 12:13:15;;;;;;;11.25;10.23;;;15.90;99.90;;;;;;4932469;28;20043;-77
2022/09/23 12:16:26;;;;;;;12.30;10.40;;;15.90;99.90;;;;;;4860449;29;20042;-78
2022/09/23 12:19:03;;;;;;;12.32;10.52;;;15.90;99.90;;;;;;4829905;29;20056;-76
2022/09/23 12:22:07;;;;;;;11.57;10.43;;;15.80;99.90;;;;;;4925513;28;20402;-78
2022/09/23 12:24:52;;;;;;;10.75;9.75;;;15.80;99.90;;;;;;4949389;28;20043;-77
2022/09/23 12:27:43;;;;;;;11.80;10.60;;;15.80;99.90;;;;;;4941933;28;20469;-78
2022/09/23 12:30:26;;;;;;;11.13;10.02;;;15.80;99.90;;;;;;4941668;28;20569;-78
2022/09/23 12:32:53;;;;;;;10.60;9.60;;;15.80;99.90;;;;;;4929888;28;20565;-78
2022/09/23 12:35:26;;;;;;;10.63;9.63;;;15.80;99.90;;;;;;4951651;28;20105;-78
2022/09/23 12:37:52;;;;;;;12.25;10.52;;;15.90;99.90;;;;;;4955785;28;20038;-78
2022/09/23 12:40:42;;;;;;;12.18;11.05;;;15.80;99.90;;;;;;4928826;29;20592;-78
2022/09/23 12:43:16;;;;;;;11.43;10.30;;;15.80;99.90;;;;;;4927128;29;20123;-78
2022/09/23 12:45:41;;;;;;;10.90;9.90;;;15.70;99.90;;;;;;4933443;29;20418;-78
2022/09/23 12:48:43;;;;;;;11.38;10.32;;;15.60;99.90;;;;;;4917376;29;20054;-78
2022/09/23 12:51:17;;;;;;;12.00;10.73;;;15.60;99.90;;;;;;4949311;29;20044;-78
2022/09/23 12:53:58;;;;;;;13.60;10.60;;;15.60;99.90;;;;;;4902040;29;20055;-77
2022/09/23 12:56:27;;;;;;;12.02;10.27;;;15.60;99.90;;;;;;4928806;29;20564;-78
2022/09/23 12:59:12;;;;;;;10.48;9.48;;;15.60;99.90;;;;;;4935554;29;20225;-78
2022/09/23 13:01:39;;;;;;;13.75;10.15;;;15.60;99.90;;;;;;4940034;28;20078;-78
2022/09/23 13:07:06;;;;;;;11.55;10.38;;;15.60;99.90;;;;;;4948750;28;20049;-76
2022/09/23 13:09:41;;;;;;;10.70;9.75;;;15.50;99.90;;;;;;4946633;28;20043;-75
2022/09/23 13:12:23;;;;;;;11.68;10.48;;;15.50;99.90;;;;;;4945982;29;20520;-78
2022/09/23 13:14:52;;;;;;;11.18;10.23;;;15.60;99.90;;;;;;4933458;28;20039;-77
2022/09/23 13:17:31;;;;;;;11.35;10.23;;;15.50;99.90;;;;;;4945536;28;20058;-77
2022/09/23 13:20:20;;;;;;;11.30;10.30;;;15.50;99.90;;;;;;4948703;28;20031;-77
2022/09/23 13:22:50;;;;;;;11.30;10.18;;;15.50;99.90;;;;;;4969648;28;20058;-77